Time;durP1;ratioP1;P1;durP2;ratioP2;P2;SDS_P1;SDS_P2;PMS_P1;PMS_P2;Temp;Humidity;BMP_temperature;BMP_pressure;BME280_temperature;BME280_humidity;BME280_pressure;Samples;Min_cycle;Max_cycle;Signal;HPM_P1;HPM_P2
2022/09/21 00:01:30;;;;;;;0.90;0.90;;;5.40;99.90;;;;;;6187483;23;20024;-80
2022/09/21 00:04:02;;;;;;;1.27;1.17;;;5.40;99.90;;;;;;6195906;23;20637;-80
2022/09/21 00:06:32;;;;;;;1.60;1.50;;;5.40;99.90;;;;;;6170137;23;20028;-80
2022/09/21 00:09:00;;;;;;;2.35;2.20;;;5.40;99.90;;;;;;6164681;23;20484;-80
2022/09/21 00:11:30;;;;;;;1.30;1.20;;;5.40;99.90;;;;;;6169772;23;20441;-80
2022/09/21 00:14:03;;;;;;;3.50;1.35;;;5.40;99.90;;;;;;6187478;23;20021;-80
2022/09/21 00:16:30;;;;;;;1.73;1.63;;;5.30;99.90;;;;;;6193605;22;20033;-80
2022/09/21 00:18:59;;;;;;;1.67;1.33;;;5.30;99.90;;;;;;6184579;23;20025;-80
2022/09/21 00:21:27;;;;;;;1.55;1.45;;;5.40;99.90;;;;;;6187836;23;20029;-80
2022/09/21 00:24:01;;;;;;;1.55;1.45;;;5.30;99.90;;;;;;6146380;22;20017;-81
2022/09/21 00:26:29;;;;;;;1.95;1.80;;;5.20;99.90;;;;;;6194493;23;20027;-80
2022/09/21 00:28:59;;;;;;;2.08;1.88;;;5.20;99.90;;;;;;6134420;23;20032;-81
2022/09/21 00:31:30;;;;;;;1.38;1.27;;;5.20;99.90;;;;;;6134749;23;20441;-81
2022/09/21 00:33:59;;;;;;;1.25;1.25;;;5.20;99.90;;;;;;6183440;23;20040;-80
2022/09/21 00:36:27;;;;;;;1.25;1.08;;;5.20;99.90;;;;;;6166864;23;20472;-81
2022/09/21 00:38:56;;;;;;;1.95;1.58;;;5.20;99.90;;;;;;6159187;23;20021;-81
2022/09/21 00:41:25;;;;;;;1.80;1.63;;;5.20;99.90;;;;;;6183140;23;20029;-80
2022/09/21 00:44:29;;;;;;;5.45;3.60;;;5.00;99.90;;;;;;6134937;23;20017;-80
2022/09/21 00:47:08;;;;;;;5.22;1.58;;;5.00;99.90;;;;;;6070615;23;20025;-80
2022/09/21 00:49:36;;;;;;;2.05;1.50;;;5.00;99.90;;;;;;6134472;23;20025;-80
2022/09/21 00:52:18;;;;;;;1.65;1.50;;;5.00;99.90;;;;;;6134380;23;20013;-80
2022/09/21 00:54:59;;;;;;;2.72;2.00;;;5.10;99.90;;;;;;6169232;23;20033;-80
2022/09/21 00:57:30;;;;;;;3.70;2.35;;;5.20;99.90;;;;;;6134520;23;20029;-81
2022/09/21 01:00:01;;;;;;;2.25;1.77;;;5.20;99.90;;;;;;6134362;22;20021;-81
2022/09/21 01:02:28;;;;;;;3.38;1.90;;;5.30;99.90;;;;;;6110330;23;20017;-81
2022/09/21 01:04:56;;;;;;;2.25;2.05;;;5.40;99.90;;;;;;6158766;23;20033;-81
2022/09/21 01:07:28;;;;;;;2.42;2.22;;;5.40;99.90;;;;;;6134967;23;20021;-81
2022/09/21 01:10:01;;;;;;;1.75;1.65;;;5.50;99.90;;;;;;6183071;23;20029;-81
2022/09/21 01:12:50;;;;;;;3.08;1.60;;;5.50;99.90;;;;;;6166055;23;20013;-81
2022/09/21 01:16:04;;;;;;;1.92;1.40;;;5.40;99.90;;;;;;6169359;23;20020;-80
2022/09/21 01:18:57;;;;;;;2.20;1.95;;;5.30;99.90;;;;;;6136980;23;20026;-81
2022/09/21 01:21:37;;;;;;;2.83;1.60;;;5.30;99.90;;;;;;6126835;23;20033;-80
2022/09/21 01:24:19;;;;;;;2.78;2.22;;;5.30;99.90;;;;;;6108462;23;20014;-80
2022/09/21 01:27:16;;;;;;;3.40;1.92;;;5.40;99.90;;;;;;6052913;23;20018;-81
2022/09/21 01:29:51;;;;;;;2.92;1.77;;;5.50;99.90;;;;;;6102062;23;20018;-81
2022/09/21 01:32:27;;;;;;;5.20;2.42;;;5.60;99.90;;;;;;6083931;23;20022;-81
2022/09/21 01:35:09;;;;;;;4.00;2.22;;;5.60;99.90;;;;;;6109980;23;20509;-81
2022/09/21 01:38:01;;;;;;;3.53;2.03;;;5.70;99.90;;;;;;6102900;23;20030;-81
2022/09/21 01:40:37;;;;;;;10.10;6.05;;;5.70;99.90;;;;;;6075124;23;20315;-81
2022/09/21 01:43:08;;;;;;;13.20;6.95;;;5.80;99.90;;;;;;6123812;23;20018;-81
2022/09/21 01:45:44;;;;;;;14.68;7.25;;;5.90;99.90;;;;;;6102684;23;20025;-81
2022/09/21 01:48:13;;;;;;;5.85;3.60;;;5.90;99.90;;;;;;6099385;23;20022;-81
2022/09/21 01:50:45;;;;;;;7.55;5.50;;;5.90;99.90;;;;;;6076183;23;20044;-81
2022/09/21 01:53:23;;;;;;;7.10;3.60;;;5.90;99.90;;;;;;6075818;23;20044;-81
2022/09/21 01:55:59;;;;;;;4.57;2.85;;;5.90;99.90;;;;;;6085924;23;20017;-81
2022/09/21 01:58:33;;;;;;;8.10;2.53;;;6.00;99.90;;;;;;6098734;23;20025;-81
2022/09/21 02:01:02;;;;;;;8.23;3.30;;;6.00;99.90;;;;;;6105080;23;20037;-81
2022/09/21 02:03:38;;;;;;;6.80;4.70;;;6.00;99.90;;;;;;6052089;23;20018;-81
2022/09/21 02:06:08;;;;;;;4.65;2.72;;;5.90;99.90;;;;;;6076725;23;20026;-81
2022/09/21 02:08:37;;;;;;;4.18;3.85;;;5.90;99.90;;;;;;6050806;23;20018;-81
2022/09/21 02:11:06;;;;;;;7.18;3.65;;;6.00;99.90;;;;;;6123880;23;20026;-81
2022/09/21 02:13:40;;;;;;;3.95;2.63;;;6.00;99.90;;;;;;6078793;23;20029;-81
2022/09/21 02:16:34;;;;;;;4.72;2.28;;;6.10;99.90;;;;;;6075139;23;20035;-81
2022/09/21 02:19:33;;;;;;;3.70;2.10;;;6.10;99.90;;;;;;6129101;23;20033;-81
2022/09/21 02:22:05;;;;;;;2.92;2.47;;;6.20;99.90;;;;;;6100368;23;20053;-81
2022/09/21 02:24:46;;;;;;;2.72;2.53;;;6.30;99.90;;;;;;6099190;23;20037;-81
2022/09/21 02:27:26;;;;;;;2.65;2.45;;;6.30;99.90;;;;;;6052143;23;20022;-81
2022/09/21 02:30:13;;;;;;;4.25;2.50;;;6.30;99.90;;;;;;6098762;23;20026;-81
2022/09/21 02:32:50;;;;;;;4.00;2.92;;;6.20;99.90;;;;;;6131646;23;20025;-81
2022/09/21 02:35:29;;;;;;;4.45;2.10;;;6.20;99.90;;;;;;6124178;23;20018;-81
2022/09/21 02:38:09;;;;;;;3.10;2.70;;;6.20;99.90;;;;;;6100544;23;20497;-81
2022/09/21 02:41:00;;;;;;;3.37;3.07;;;6.20;99.90;;;;;;6050878;23;20346;-81
2022/09/21 02:43:35;;;;;;;3.08;2.53;;;6.20;99.90;;;;;;6075867;23;20018;-81
2022/09/21 02:46:14;;;;;;;2.25;2.05;;;6.30;99.90;;;;;;6126167;23;20457;-81
2022/09/21 02:48:50;;;;;;;2.65;2.35;;;6.30;99.90;;;;;;6074776;23;20036;-81
2022/09/21 02:51:24;;;;;;;3.10;2.67;;;6.30;99.90;;;;;;6123514;23;20350;-81
2022/09/21 02:53:57;;;;;;;1.80;1.70;;;6.20;99.90;;;;;;6101222;23;20034;-81
2022/09/21 02:56:26;;;;;;;3.17;2.67;;;6.20;99.90;;;;;;6107325;23;20346;-81
2022/09/21 02:58:56;;;;;;;3.25;2.53;;;6.10;99.90;;;;;;6135043;23;20014;-81
2022/09/21 03:01:25;;;;;;;3.88;2.72;;;6.10;99.90;;;;;;6102873;23;20021;-81
2022/09/21 03:03:53;;;;;;;8.68;3.13;;;6.00;99.90;;;;;;6075394;23;20014;-81
2022/09/21 03:06:20;;;;;;;8.30;4.00;;;6.00;99.90;;;;;;6099436;23;20472;-81
2022/09/21 03:08:48;;;;;;;8.85;3.53;;;6.00;99.90;;;;;;6105525;23;20029;-81
2022/09/21 03:11:16;;;;;;;8.32;3.63;;;5.90;99.90;;;;;;6051528;23;20018;-81
2022/09/21 03:13:44;;;;;;;8.43;4.85;;;5.90;99.90;;;;;;6074780;23;20022;-81
2022/09/21 03:16:12;;;;;;;4.13;3.70;;;5.80;99.90;;;;;;6083771;23;20021;-81
2022/09/21 03:18:41;;;;;;;10.57;3.92;;;5.80;99.90;;;;;;6104774;23;20022;-81
2022/09/21 03:21:08;;;;;;;11.43;6.03;;;5.80;99.90;;;;;;6129301;23;20030;-81
2022/09/21 03:23:42;;;;;;;15.70;4.40;;;5.80;99.90;;;;;;6123552;23;20338;-81
2022/09/21 03:26:09;;;;;;;6.47;2.75;;;5.80;99.90;;;;;;6125443;23;20022;-81
2022/09/21 03:28:36;;;;;;;9.80;5.60;;;5.70;99.90;;;;;;6132240;23;20018;-81
2022/09/21 03:31:05;;;;;;;3.75;2.53;;;5.70;99.90;;;;;;6135007;23;20025;-81
2022/09/21 03:33:32;;;;;;;9.50;2.85;;;5.70;99.90;;;;;;6128106;23;20022;-81
2022/09/21 03:36:00;;;;;;;4.85;2.80;;;5.70;99.90;;;;;;6108667;23;20037;-81
2022/09/21 03:38:27;;;;;;;8.48;3.42;;;5.70;99.90;;;;;;6109044;23;20067;-81
2022/09/21 03:40:56;;;;;;;4.05;3.03;;;5.70;99.90;;;;;;6130282;23;20026;-81
2022/09/21 03:43:24;;;;;;;6.28;3.90;;;5.70;99.90;;;;;;6109054;23;20458;-81
2022/09/21 03:45:52;;;;;;;10.85;3.33;;;5.60;99.90;;;;;;6074514;23;20334;-81
2022/09/21 03:48:21;;;;;;;4.68;3.35;;;5.60;99.90;;;;;;6106832;23;20029;-81
2022/09/21 03:50:48;;;;;;;6.13;2.30;;;5.50;99.90;;;;;;6134822;23;20314;-80
2022/09/21 03:53:54;;;;;;;9.77;2.95;;;5.40;99.90;;;;;;6129153;23;20458;-82
2022/09/21 03:56:22;;;;;;;8.80;3.17;;;5.30;99.90;;;;;;6132152;23;20330;-82
2022/09/21 03:58:49;;;;;;;2.40;2.20;;;5.30;99.90;;;;;;6072332;23;20473;-82
2022/09/21 04:01:17;;;;;;;3.83;3.13;;;5.20;99.90;;;;;;6127855;23;20026;-82
2022/09/21 04:03:44;;;;;;;3.33;3.00;;;5.20;99.90;;;;;;6099018;23;20022;-82
2022/09/21 04:06:12;;;;;;;1.75;1.65;;;5.20;99.90;;;;;;6074564;23;20033;-82
2022/09/21 04:08:40;;;;;;;2.40;2.20;;;4.90;99.90;;;;;;6105613;23;20022;-82
2022/09/21 04:11:15;;;;;;;2.58;2.38;;;4.70;99.90;;;;;;6076937;23;20018;-81
2022/09/21 04:13:43;;;;;;;3.95;2.50;;;4.70;99.90;;;;;;6052112;23;20029;-81
2022/09/21 04:16:10;;;;;;;2.33;2.05;;;4.70;99.90;;;;;;6134647;23;20028;-82
2022/09/21 04:18:37;;;;;;;3.80;3.47;;;4.60;99.90;;;;;;6061346;23;20026;-81
2022/09/21 04:21:05;;;;;;;10.55;2.97;;;4.50;99.90;;;;;;6105340;23;20029;-81
2022/09/21 04:24:05;;;;;;;3.58;2.50;;;4.40;99.90;;;;;;6136187;23;20018;-81
2022/09/21 04:26:34;;;;;;;2.33;2.13;;;4.40;99.90;;;;;;6104067;23;20038;-82
2022/09/21 04:29:02;;;;;;;6.85;2.70;;;4.30;99.90;;;;;;6113766;23;20029;-82
2022/09/21 04:31:29;;;;;;;3.47;3.17;;;4.30;99.90;;;;;;6148482;23;20045;-82
2022/09/21 04:33:57;;;;;;;3.42;3.22;;;4.30;99.90;;;;;;6126126;23;20041;-82
2022/09/21 04:36:27;;;;;;;3.63;3.05;;;4.30;99.90;;;;;;6131939;23;20018;-82
2022/09/21 04:38:59;;;;;;;3.30;3.10;;;4.30;99.90;;;;;;6135613;23;20025;-85
2022/09/21 04:41:27;;;;;;;2.88;2.67;;;4.30;99.90;;;;;;6128301;23;20021;-83
2022/09/21 04:43:54;;;;;;;3.63;2.63;;;4.20;99.90;;;;;;6149344;23;20024;-81
2022/09/21 04:46:22;;;;;;;3.42;3.13;;;4.10;99.90;;;;;;6126030;23;20522;-81
2022/09/21 04:48:49;;;;;;;4.95;3.38;;;4.10;99.90;;;;;;6130370;23;20021;-81
2022/09/21 04:51:16;;;;;;;2.80;2.60;;;4.10;99.90;;;;;;6135474;23;20013;-81
2022/09/21 04:53:44;;;;;;;4.47;2.30;;;4.00;99.90;;;;;;6127862;23;20018;-82
2022/09/21 04:56:15;;;;;;;3.53;2.15;;;3.80;99.90;;;;;;6134646;23;20022;-84
2022/09/21 04:58:43;;;;;;;4.22;3.80;;;3.70;99.90;;;;;;6149180;23;20037;-82
2022/09/21 05:01:10;;;;;;;4.40;3.03;;;3.70;99.90;;;;;;6147997;23;20476;-79
2022/09/21 05:03:38;;;;;;;3.70;2.65;;;3.60;99.90;;;;;;6135690;23;20718;-81
2022/09/21 05:06:07;;;;;;;3.00;2.70;;;3.50;99.90;;;;;;6125858;23;20018;-80
2022/09/21 05:11:21;;;;;;;11.10;6.20;;;3.60;99.90;;;;;;6135045;23;20032;-81
2022/09/21 05:13:49;;;;;;;3.22;3.03;;;3.70;99.90;;;;;;6099602;23;20472;-80
2022/09/21 05:16:17;;;;;;;4.07;2.50;;;3.80;99.90;;;;;;6134160;23;20022;-80
2022/09/21 05:18:45;;;;;;;3.15;2.38;;;3.80;99.90;;;;;;6160906;23;20024;-80
2022/09/21 05:21:13;;;;;;;3.13;2.88;;;3.90;99.90;;;;;;6187029;23;20032;-80
2022/09/21 05:23:48;;;;;;;4.60;3.95;;;3.90;99.90;;;;;;6195391;23;20012;-80
2022/09/21 05:26:15;;;;;;;11.05;3.60;;;3.90;99.90;;;;;;6180165;23;20352;-77
2022/09/21 05:28:43;;;;;;;3.28;3.03;;;3.90;99.90;;;;;;6188668;23;20029;-78
2022/09/21 05:31:34;;;;;;;10.40;6.18;;;3.90;99.90;;;;;;6190824;23;20013;-78
2022/09/21 05:34:28;;;;;;;15.43;7.77;;;3.90;99.90;;;;;;6180480;23;20025;-78
2022/09/21 05:37:26;;;;;;;8.60;5.57;;;3.80;99.90;;;;;;6187458;22;20244;-78
2022/09/21 05:39:53;;;;;;;10.52;6.30;;;3.90;99.90;;;;;;6191937;23;20013;-79
2022/09/21 05:42:21;;;;;;;12.38;8.65;;;3.90;99.90;;;;;;6181050;23;20032;-77
2022/09/21 05:44:49;;;;;;;16.95;6.25;;;4.00;99.90;;;;;;6162333;23;20024;-77
2022/09/21 05:47:28;;;;;;;10.38;7.20;;;4.00;99.90;;;;;;6193113;23;20020;-77
2022/09/21 05:50:04;;;;;;;8.20;4.47;;;4.00;99.90;;;;;;6158106;23;20021;-77
2022/09/21 05:52:43;;;;;;;4.35;4.00;;;4.10;99.90;;;;;;6188345;22;20024;-77
2022/09/21 05:55:48;;;;;;;2.75;2.55;;;4.10;99.90;;;;;;6181197;23;20456;-77
2022/09/21 05:58:20;;;;;;;4.72;3.47;;;4.20;99.90;;;;;;6181080;23;20017;-77
2022/09/21 06:01:19;;;;;;;3.40;3.10;;;4.20;99.90;;;;;;6162104;23;20028;-77
2022/09/21 06:03:48;;;;;;;6.30;3.70;;;4.30;99.90;;;;;;6167010;23;20012;-77
2022/09/21 06:06:17;;;;;;;4.07;3.58;;;4.40;99.90;;;;;;6130238;23;20032;-77
2022/09/21 06:08:45;;;;;;;6.13;4.00;;;4.50;99.90;;;;;;6180348;23;20023;-77
2022/09/21 06:11:12;;;;;;;3.28;3.05;;;4.80;99.90;;;;;;6192466;23;20482;-78
2022/09/21 06:13:40;;;;;;;5.75;4.10;;;5.00;99.90;;;;;;6131795;23;20032;-77
2022/09/21 06:16:08;;;;;;;3.70;3.40;;;5.00;99.90;;;;;;6191681;22;20024;-77
2022/09/21 06:18:39;;;;;;;3.75;3.45;;;5.10;99.90;;;;;;6188343;23;20028;-78
2022/09/21 06:21:07;;;;;;;4.00;3.70;;;5.30;99.90;;;;;;6161994;23;20040;-78
2022/09/21 06:23:38;;;;;;;6.80;6.22;;;5.70;99.90;;;;;;6167133;23;20024;-78
2022/09/21 06:26:05;;;;;;;5.47;4.97;;;6.30;99.90;;;;;;6174316;23;20025;-78
2022/09/21 06:28:33;;;;;;;6.55;4.35;;;6.90;99.90;;;;;;6180538;23;20400;-78
2022/09/21 06:31:00;;;;;;;3.83;3.63;;;7.50;99.90;;;;;;6125952;23;20471;-78
2022/09/21 06:33:27;;;;;;;2.80;2.60;;;8.00;99.90;;;;;;6150073;23;20024;-78
2022/09/21 06:35:58;;;;;;;2.63;2.42;;;8.30;99.90;;;;;;6152465;23;20024;-78
2022/09/21 06:38:27;;;;;;;4.68;3.60;;;8.60;99.90;;;;;;6176562;23;20025;-78
2022/09/21 06:41:00;;;;;;;3.60;3.35;;;8.70;99.90;;;;;;6157682;23;20040;-78
2022/09/21 06:43:28;;;;;;;7.75;3.38;;;8.80;99.90;;;;;;6178044;23;20025;-78
2022/09/21 06:45:58;;;;;;;3.50;3.20;;;9.00;99.90;;;;;;6127914;23;20028;-79
2022/09/21 06:48:27;;;;;;;4.33;3.70;;;9.10;99.90;;;;;;6185985;23;20025;-79
2022/09/21 06:51:01;;;;;;;4.78;4.38;;;9.30;99.90;;;;;;6162628;23;20024;-79
2022/09/21 06:53:29;;;;;;;6.32;4.93;;;9.60;99.90;;;;;;6152204;23;20032;-79
2022/09/21 06:56:08;;;;;;;3.30;2.70;;;9.90;99.90;;;;;;6177189;23;20017;-79
2022/09/21 06:58:36;;;;;;;3.25;2.95;;;10.00;99.90;;;;;;6137437;23;20025;-79
2022/09/21 07:01:05;;;;;;;4.03;3.05;;;9.90;99.90;;;;;;6183774;23;20036;-79
2022/09/21 07:03:33;;;;;;;2.90;2.65;;;9.90;99.90;;;;;;6128075;23;20017;-79
2022/09/21 07:06:00;;;;;;;3.33;2.88;;;9.80;99.90;;;;;;6180022;22;20036;-79
2022/09/21 07:08:28;;;;;;;9.60;3.58;;;9.50;99.90;;;;;;6185713;23;20013;-79
2022/09/21 07:11:15;;;;;;;2.72;1.83;;;9.60;99.90;;;;;;6178174;23;20024;-79
2022/09/21 07:13:44;;;;;;;2.28;2.08;;;9.70;99.90;;;;;;6154518;23;20025;-79
2022/09/21 07:16:12;;;;;;;3.13;2.78;;;9.60;99.90;;;;;;6186508;23;20028;-79
2022/09/21 07:18:48;;;;;;;4.53;2.50;;;9.80;99.90;;;;;;6181647;23;20029;-80
2022/09/21 07:21:16;;;;;;;4.63;3.78;;;9.90;99.90;;;;;;6180087;22;20036;-78
2022/09/21 07:23:51;;;;;;;2.10;2.00;;;10.00;99.90;;;;;;6136493;23;20029;-78
2022/09/21 07:26:18;;;;;;;2.78;2.50;;;9.90;99.90;;;;;;6177871;23;20033;-78
2022/09/21 07:28:45;;;;;;;5.05;2.75;;;10.10;99.90;;;;;;6177443;23;20029;-80
2022/09/21 07:31:15;;;;;;;6.25;2.55;;;9.80;99.90;;;;;;6153218;23;20021;-80
2022/09/21 07:33:45;;;;;;;3.28;2.00;;;9.90;99.90;;;;;;6153011;23;20025;-80
2022/09/21 07:36:13;;;;;;;2.07;1.97;;;10.30;99.90;;;;;;6128345;22;20044;-79
2022/09/21 07:38:43;;;;;;;3.55;3.25;;;10.20;99.90;;;;;;6177784;23;20017;-80
2022/09/21 07:41:12;;;;;;;1.50;1.40;;;10.20;99.90;;;;;;6152479;23;20021;-81
2022/09/21 07:43:40;;;;;;;3.63;2.88;;;10.40;99.90;;;;;;6164091;23;20885;-80
2022/09/21 07:46:10;;;;;;;1.55;1.40;;;10.50;99.90;;;;;;6180307;23;20079;-80
2022/09/21 07:48:38;;;;;;;2.58;1.90;;;10.30;99.90;;;;;;6188607;23;20025;-80
2022/09/21 07:51:08;;;;;;;1.00;1.00;;;10.40;99.90;;;;;;6191363;23;20016;-79
2022/09/21 07:53:41;;;;;;;1.42;1.30;;;10.60;99.90;;;;;;6182002;23;20353;-79
2022/09/21 07:56:11;;;;;;;1.20;1.20;;;10.50;99.90;;;;;;6154423;23;20017;-80
2022/09/21 08:01:26;;;;;;;2.20;2.10;;;10.30;99.90;;;;;;6179276;23;20021;-80
2022/09/21 08:03:55;;;;;;;3.08;2.72;;;10.40;99.90;;;;;;6153058;23;20017;-80
2022/09/21 08:06:26;;;;;;;4.32;2.83;;;10.50;99.90;;;;;;6178568;23;20479;-78
2022/09/21 08:08:53;;;;;;;3.08;2.17;;;10.70;99.90;;;;;;6159955;23;20029;-79
2022/09/21 08:11:26;;;;;;;2.72;2.60;;;10.70;99.90;;;;;;6190523;23;20040;-79
2022/09/21 08:13:56;;;;;;;2.92;2.70;;;10.60;99.90;;;;;;6156384;23;20025;-79
2022/09/21 08:16:25;;;;;;;2.50;2.30;;;10.50;99.90;;;;;;6188593;23;20013;-80
2022/09/21 08:18:53;;;;;;;6.38;4.53;;;10.40;99.90;;;;;;6157401;23;20017;-80
2022/09/21 08:21:20;;;;;;;2.03;1.90;;;10.20;99.90;;;;;;6184782;23;20337;-79
2022/09/21 08:23:49;;;;;;;7.57;3.55;;;10.30;99.90;;;;;;6189219;23;20017;-79
2022/09/21 08:26:19;;;;;;;2.55;2.35;;;10.40;99.90;;;;;;6180688;23;20028;-79
2022/09/21 08:28:50;;;;;;;4.00;2.30;;;10.70;99.90;;;;;;6186389;23;20381;-79
2022/09/21 08:31:20;;;;;;;12.82;4.47;;;10.90;99.90;;;;;;6190987;23;20017;-79
2022/09/21 08:33:48;;;;;;;2.72;1.42;;;11.20;99.90;;;;;;6182821;22;20423;-79
2022/09/21 08:36:17;;;;;;;3.70;1.52;;;11.10;99.90;;;;;;6189197;23;20013;-79
2022/09/21 08:38:45;;;;;;;4.57;1.38;;;11.30;99.90;;;;;;6190510;23;20028;-80
2022/09/21 08:41:45;;;;;;;4.75;1.75;;;11.40;99.90;;;;;;6184735;23;20039;-80
2022/09/21 08:44:23;;;;;;;6.00;2.15;;;11.30;99.90;;;;;;6189575;23;20021;-79
2022/09/21 08:47:08;;;;;;;2.90;1.83;;;11.00;99.90;;;;;;6191055;23;20440;-80
2022/09/21 08:49:41;;;;;;;1.65;1.55;;;11.00;99.90;;;;;;6156754;23;20028;-79
2022/09/21 08:52:17;;;;;;;14.60;4.25;;;11.10;99.90;;;;;;6189552;23;20700;-80
2022/09/21 08:54:50;;;;;;;3.03;2.78;;;10.90;99.90;;;;;;6190418;23;20013;-79
2022/09/21 08:57:18;;;;;;;1.80;1.70;;;10.80;99.90;;;;;;6178490;23;20036;-80
2022/09/21 08:59:48;;;;;;;2.47;2.28;;;11.10;99.90;;;;;;6164483;23;20017;-80
2022/09/21 09:03:09;;;;;;;2.42;1.48;;;11.20;99.90;;;;;;6129385;23;20366;-79
2022/09/21 09:05:40;;;;;;;;;;;11.30;99.90;;;;;;6119621;23;20030;-80
2022/09/21 09:08:27;;;;;;;1.63;1.30;;;11.50;99.90;;;;;;6169653;23;19920;-79
2022/09/21 09:11:19;;;;;;;2.08;1.98;;;11.60;99.90;;;;;;6190227;23;20028;-80
2022/09/21 09:13:46;;;;;;;;;;;11.60;99.90;;;;;;6156744;23;20607;-80
2022/09/21 09:16:23;;;;;;;7.63;1.58;;;11.60;99.90;;;;;;6185885;23;19920;-81
2022/09/21 09:19:15;;;;;;;4.25;1.45;;;11.30;99.90;;;;;;6157193;23;20025;-81
2022/09/21 09:21:44;;;;;;;2.25;1.00;;;11.30;99.90;;;;;;6145985;23;20033;-82
2022/09/21 09:24:32;;;;;;;1.58;1.00;;;11.60;99.90;;;;;;6188465;23;20064;-82
2022/09/21 09:27:25;;;;;;;1.50;1.08;;;11.80;99.90;;;;;;6190531;23;20344;-82
2022/09/21 09:30:01;;;;;;;1.20;1.10;;;12.00;99.90;;;;;;6172891;22;20020;-81
2022/09/21 09:32:38;;;;;;;1.02;1.00;;;12.00;99.90;;;;;;6162053;23;20029;-82
2022/09/21 09:35:37;;;;;;;2.20;1.02;;;12.20;99.90;;;;;;6190764;23;20024;-82
2022/09/21 09:38:18;;;;;;;0.95;0.88;;;12.20;99.90;;;;;;6181249;22;20025;-82
2022/09/21 09:41:06;;;;;;;0.93;0.70;;;12.30;99.90;;;;;;6186730;23;20032;-81
2022/09/21 09:44:23;;;;;;;0.93;0.93;;;12.40;99.90;;;;;;6191070;23;20020;-84
2022/09/21 09:47:12;;;;;;;0.80;0.75;;;12.50;99.90;;;;;;6107651;23;20022;-84
2022/09/21 09:50:02;;;;;;;1.10;0.93;;;12.50;99.90;;;;;;6118013;23;20157;-88
2022/09/21 09:52:33;;;;;;;0.60;0.60;;;12.50;99.90;;;;;;6143277;23;20329;-81
2022/09/21 09:55:14;;;;;;;14.38;5.88;;;12.60;99.90;;;;;;6160677;23;20021;-81
2022/09/21 09:57:42;;;;;;;81.90;40.47;;;12.70;99.90;;;;;;6180351;23;20698;-82
2022/09/21 10:00:14;;;;;;;2.15;0.70;;;12.80;99.90;;;;;;6150683;23;20027;-82
2022/09/21 10:02:48;;;;;;;0.95;0.70;;;12.50;99.90;;;;;;6127527;23;20032;-82
2022/09/21 10:05:19;;;;;;;0.75;0.65;;;12.40;99.90;;;;;;6127723;23;20479;-82
2022/09/21 10:07:46;;;;;;;0.50;0.50;;;12.30;99.90;;;;;;6177212;23;20069;-82
2022/09/21 10:10:33;;;;;;;0.82;0.82;;;12.40;99.90;;;;;;6178911;23;20036;-82
2022/09/21 10:13:18;;;;;;;1.30;0.60;;;12.50;99.90;;;;;;6127454;23;20029;-82
2022/09/21 10:15:52;;;;;;;30.90;13.90;;;12.60;99.90;;;;;;6189170;23;20017;-81
2022/09/21 10:18:41;;;;;;;1.27;1.00;;;12.60;99.90;;;;;;6147641;23;20528;-87
2022/09/21 10:21:17;;;;;;;0.50;0.50;;;12.80;99.90;;;;;;6147837;23;20021;-87
2022/09/21 10:27:55;;;;;;;1.98;0.60;;;12.90;99.90;;;;;;6167272;23;20026;-86
2022/09/21 10:30:47;;;;;;;1.67;1.08;;;12.80;99.90;;;;;;6105735;23;20025;-87
2022/09/21 10:33:28;;;;;;;2.05;1.20;;;12.80;99.90;;;;;;6102615;23;20040;-87
2022/09/21 10:35:57;;;;;;;0.82;0.82;;;13.00;99.90;;;;;;6124612;23;20017;-85
2022/09/21 10:38:29;;;;;;;0.93;0.65;;;13.00;99.90;;;;;;6147963;23;20029;-87
2022/09/21 10:41:00;;;;;;;0.50;0.50;;;13.20;99.90;;;;;;6147638;23;20033;-87
2022/09/21 10:44:23;;;;;;;0.70;0.63;;;13.20;99.90;;;;;;6124427;23;20025;-88
2022/09/21 10:47:17;;;;;;;4.75;1.83;;;13.40;99.90;;;;;;6082379;23;20025;-81
2022/09/21 10:49:57;;;;;;;1.73;1.48;;;13.40;99.90;;;;;;6123402;23;20025;-81
2022/09/21 10:52:40;;;;;;;0.60;0.60;;;13.30;99.90;;;;;;6145101;23;20044;-81
2022/09/21 10:55:22;;;;;;;1.23;1.10;;;13.20;99.90;;;;;;6130741;23;20477;-81
2022/09/21 10:57:51;;;;;;;0.50;0.50;;;13.30;99.90;;;;;;6148926;23;20461;-83
2022/09/21 11:00:24;;;;;;;2.38;0.85;;;13.40;99.90;;;;;;6133570;23;20036;-86
2022/09/21 11:02:54;;;;;;;2.38;0.90;;;13.60;99.90;;;;;;6128157;23;20022;-82
2022/09/21 11:05:28;;;;;;;0.73;0.73;;;13.70;99.90;;;;;;6102107;23;20346;-88
2022/09/21 11:08:20;;;;;;;0.65;0.65;;;13.70;99.90;;;;;;6129941;23;20682;-87
2022/09/21 11:11:25;;;;;;;0.60;0.60;;;13.80;99.90;;;;;;6031263;23;20026;-85
2022/09/21 11:14:12;;;;;;;1.73;1.63;;;13.60;99.90;;;;;;6125995;23;20022;-86
2022/09/21 11:17:06;;;;;;;11.45;9.82;;;13.40;99.90;;;;;;6133792;23;20161;-87
2022/09/21 11:20:12;;;;;;;1.10;0.88;;;13.40;99.90;;;;;;6155627;23;20341;-87
2022/09/21 11:22:53;;;;;;;2.35;0.65;;;13.60;99.90;;;;;;6094746;23;20032;-85
2022/09/21 11:25:43;;;;;;;1.92;0.75;;;13.60;99.90;;;;;;6129548;23;20353;-87
2022/09/21 11:28:32;;;;;;;0.73;0.55;;;13.60;99.90;;;;;;6165464;22;20028;-86
2022/09/21 11:31:14;;;;;;;0.60;0.60;;;13.70;99.90;;;;;;6154966;23;20018;-85
2022/09/21 11:34:02;;;;;;;1.90;0.82;;;13.70;99.90;;;;;;6157043;23;20030;-86
2022/09/21 11:36:32;;;;;;;0.82;0.82;;;13.60;99.90;;;;;;6153840;23;20026;-82
2022/09/21 11:39:25;;;;;;;1.90;1.40;;;13.50;99.90;;;;;;6189834;23;20022;-84
2022/09/21 11:42:19;;;;;;;1.02;0.90;;;13.70;99.90;;;;;;6156083;23;20257;-84
2022/09/21 11:45:25;;;;;;;4.32;3.92;;;14.10;99.90;;;;;;6160543;23;20029;-88
2022/09/21 11:48:19;;;;;;;1.85;0.68;;;14.00;99.90;;;;;;6130607;23;20022;-83
2022/09/21 11:51:05;;;;;;;0.60;0.60;;;13.80;99.90;;;;;;6161974;23;20034;-83
2022/09/21 11:53:42;;;;;;;0.65;0.65;;;13.70;99.90;;;;;;6159628;23;20017;-83
2022/09/21 11:56:34;;;;;;;0.85;0.80;;;13.70;99.90;;;;;;6162172;22;20025;-83
2022/09/21 11:59:11;;;;;;;1.17;0.95;;;13.90;99.90;;;;;;6165662;23;20029;-86
2022/09/21 12:01:53;;;;;;;1.02;1.00;;;14.20;99.90;;;;;;6129718;23;20488;-86
2022/09/21 12:05:02;;;;;;;6.25;1.60;;;14.30;99.90;;;;;;6154275;22;20021;-86
2022/09/21 12:07:51;;;;;;;1.80;0.98;;;14.30;99.90;;;;;;6089255;23;20022;-85
2022/09/21 12:11:20;;;;;;;0.70;0.70;;;14.40;99.90;;;;;;6108583;23;20025;-85
2022/09/21 12:14:37;;;;;;;0.95;0.95;;;14.60;99.90;;;;;;6156519;23;20040;-88
2022/09/21 12:17:28;;;;;;;0.98;0.98;;;14.60;99.90;;;;;;6159467;23;20021;-87
2022/09/21 12:20:56;;;;;;;1.65;0.68;;;14.50;99.90;;;;;;6130722;23;20013;-88
2022/09/21 12:23:45;;;;;;;2.38;0.50;;;14.60;99.90;;;;;;6146651;23;20775;-87
2022/09/21 12:26:22;;;;;;;2.47;0.80;;;14.50;99.90;;;;;;6155547;23;20453;-83
2022/09/21 12:28:59;;;;;;;0.50;0.50;;;14.30;99.90;;;;;;6129148;23;20037;-84
2022/09/21 12:31:45;;;;;;;1.33;0.80;;;14.20;99.90;;;;;;6165808;23;20337;-84
2022/09/21 12:34:17;;;;;;;0.77;0.77;;;14.00;99.90;;;;;;6133843;23;20028;-86
2022/09/21 12:37:32;;;;;;;1.55;1.45;;;14.00;99.90;;;;;;6129084;23;20028;-85
2022/09/21 12:40:26;;;;;;;0.75;0.60;;;13.70;99.90;;;;;;6148094;22;20025;-85
2022/09/21 12:43:13;;;;;;;0.93;0.93;;;13.90;99.90;;;;;;6157432;23;20014;-87
2022/09/21 12:45:51;;;;;;;2.72;0.90;;;14.10;99.90;;;;;;6132519;23;20036;-87
2022/09/21 12:48:48;;;;;;;2.20;0.68;;;14.30;99.90;;;;;;6153398;23;20637;-86
2022/09/21 12:51:15;;;;;;;0.70;0.70;;;14.40;99.90;;;;;;6138698;23;20025;-87
2022/09/21 12:53:57;;;;;;;1.80;0.90;;;14.50;99.90;;;;;;6155998;23;20017;-85
2022/09/21 12:56:36;;;;;;;1.75;0.55;;;14.40;99.90;;;;;;6178323;23;20014;-86
2022/09/21 12:59:26;;;;;;;0.68;0.50;;;14.40;99.60;;;;;;6139932;23;20025;-88
2022/09/21 13:02:12;;;;;;;0.50;0.50;;;14.20;99.90;;;;;;6129313;23;20048;-87
2022/09/21 13:05:14;;;;;;;0.55;0.55;;;14.20;99.90;;;;;;6161681;22;20496;-88
2022/09/21 13:07:59;;;;;;;0.63;0.63;;;14.10;99.90;;;;;;6188350;23;20024;-89
2022/09/21 13:10:27;;;;;;;8.35;1.10;;;14.20;99.90;;;;;;6098940;23;20033;-88
2022/09/21 13:13:01;;;;;;;1.30;1.00;;;14.20;99.90;;;;;;6130531;23;20022;-89
2022/09/21 13:15:40;;;;;;;0.50;0.50;;;14.30;99.90;;;;;;6162960;23;20014;-88
2022/09/21 13:18:36;;;;;;;0.57;0.57;;;14.30;99.90;;;;;;6156497;23;20029;-88
2022/09/21 13:21:22;;;;;;;0.35;0.35;;;14.20;99.90;;;;;;6160029;23;20025;-84
2022/09/21 13:24:29;;;;;;;0.57;0.57;;;14.10;99.30;;;;;;6164008;23;20464;-87
2022/09/21 13:27:05;;;;;;;1.15;0.55;;;14.10;99.90;;;;;;6162935;23;20358;-88
2022/09/21 13:29:35;;;;;;;0.68;0.65;;;14.10;99.90;;;;;;6128861;23;20441;-87
2022/09/21 13:32:12;;;;;;;4.97;1.10;;;14.20;99.90;;;;;;6104426;23;20020;-88
2022/09/21 13:34:41;;;;;;;1.40;0.95;;;14.20;99.90;;;;;;6105402;23;20036;-87
2022/09/21 13:37:15;;;;;;;1.27;1.13;;;14.30;99.90;;;;;;6128848;23;20051;-88
2022/09/21 13:40:01;;;;;;;0.73;0.63;;;14.30;99.90;;;;;;6139276;23;20013;-89
2022/09/21 13:42:33;;;;;;;0.60;0.60;;;14.40;99.90;;;;;;6128031;23;20030;-88
2022/09/21 13:45:03;;;;;;;1.77;0.82;;;14.40;99.90;;;;;;6134667;23;20491;-88
2022/09/21 13:47:37;;;;;;;0.53;0.53;;;14.50;99.90;;;;;;6138880;23;20028;-89
2022/09/21 13:50:30;;;;;;;3.45;0.90;;;14.30;99.90;;;;;;6155643;23;20264;-88
2022/09/21 13:53:25;;;;;;;1.95;0.60;;;14.30;99.90;;;;;;6128348;23;20040;-88